17 maggio 2022

Tempo Codice Tempo metereologico Temp. Vista Nuvole Vento METAR/SPECI
16:00
V
26 °C 10 km+ - 320°   320° 4 kt METAR LFLW 171400Z AUTO 32004KT 230V360 CAVOK 26/11 Q1019 NOSIG
15:30
V
28 °C 10 km+ - Var   Var 4 kt METAR LFLW 171330Z AUTO VRB04KT CAVOK 28/12 Q1019 NOSIG
15:00
V
28 °C 10 km+ - 290°   290° 5 kt METAR LFLW 171300Z AUTO 29005KT 230V010 CAVOK 28/13 Q1020 NOSIG
14:30
V
28 °C 10 km+ - 200°   200° 3 kt METAR LFLW 171230Z AUTO 20003KT 110V250 CAVOK 28/11 Q1020 NOSIG
14:00
V
27 °C 10 km+ - Var   Var 4 kt METAR LFLW 171200Z AUTO VRB04KT CAVOK 27/12 Q1020 NOSIG
13:30
V
27 °C 10 km+ - 160°   160° 4 kt METAR LFLW 171130Z AUTO 16004KT 070V220 CAVOK 27/09 Q1020 NOSIG
13:00
V
27 °C 10 km+ - Var   Var 3 kt METAR LFLW 171100Z AUTO VRB03KT CAVOK 27/09 Q1020 NOSIG
12:30
V
26 °C 10 km+ - Var   Var 2 kt METAR LFLW 171030Z AUTO VRB02KT CAVOK 26/12 Q1020 NOSIG
12:00
V
26 °C 10 km+ - Var   Var 3 kt METAR LFLW 171000Z AUTO VRB03KT CAVOK 26/11 Q1021 NOSIG
11:30
V
25 °C 10 km+ - Var   Var 3 kt METAR LFLW 170930Z AUTO VRB03KT CAVOK 25/11 Q1021 NOSIG
11:00
V
25 °C 10 km+ - Var   Var 3 kt METAR LFLW 170900Z AUTO VRB03KT CAVOK 25/14 Q1021 NOSIG
10:30
V
23 °C 10 km+ - 100°   100° 3 kt METAR LFLW 170830Z AUTO 10003KT 070V140 CAVOK 23/13 Q1021 NOSIG
10:00
V
22 °C 10 km+ - Var   Var 3 kt METAR LFLW 170800Z AUTO VRB03KT CAVOK 22/14 Q1021 NOSIG
09:30
V
20 °C 10 km+ - 090°   090° 4 kt METAR LFLW 170730Z AUTO 09004KT CAVOK 20/12 Q1021 NOSIG
09:00
V
18 °C 10 km+ - 090°   090° 3 kt METAR LFLW 170700Z AUTO 09003KT 060V130 CAVOK 18/11 Q1021 NOSIG
08:30
V
16 °C 10 km+ - 090°   090° 5 kt METAR LFLW 170630Z AUTO 09005KT CAVOK 16/10 Q1021 NOSIG
08:00
V
14 °C 10 km+ - 080°   080° 6 kt METAR LFLW 170600Z AUTO 08006KT CAVOK 14/10 Q1021 NOSIG
07:30
V
12 °C 10 km+ - 090°   090° 6 kt METAR LFLW 170530Z AUTO 09006KT CAVOK 12/09 Q1021 NOSIG
07:00
V
10 °C 10 km+ - 100°   100° 3 kt METAR LFLW 170500Z AUTO 10003KT CAVOK 10/09 Q1021
06:30
V
9 °C 10 km+ - 120°   120° 4 kt METAR LFLW 170430Z AUTO 12004KT CAVOK 09/08 Q1021
06:00
V
9 °C 10 km+ - 110°   110° 3 kt METAR LFLW 170400Z AUTO 11003KT CAVOK 09/09 Q1021
05:00
V
10 °C 10 km+ - 120°   120° 4 kt METAR LFLW 170300Z AUTO 12004KT CAVOK 10/09 Q1021
04:30
V
10 °C 10 km+ - 130°   130° 2 kt METAR LFLW 170230Z AUTO 13002KT CAVOK 10/09 Q1021
04:00
V
10 °C 10 km+ - Var   Var 3 kt METAR LFLW 170200Z AUTO VRB03KT CAVOK 10/10 Q1021
03:30
V
10 °C 10 km+ - Var   Var 3 kt METAR LFLW 170130Z AUTO VRB03KT CAVOK 10/09 Q1021
03:00
V
11 °C 10 km+ - 090°   090° 2 kt METAR LFLW 170100Z AUTO 09002KT CAVOK 11/09 Q1021
02:30
V
11 °C 10 km+ - 120°   120° 3 kt METAR LFLW 170030Z AUTO 12003KT CAVOK 11/10 Q1022
02:00
V
11 °C 10 km+ - 100°   100° 3 kt METAR LFLW 170000Z AUTO 10003KT CAVOK 11/10 Q1022
01:30
V
11 °C 10 km+ - 100°   100° 3 kt METAR LFLW 162330Z AUTO 10003KT CAVOK 11/10 Q1022
01:00
V
12 °C 10 km+ - 100°   100° 3 kt METAR LFLW 162300Z AUTO 10003KT CAVOK 12/11 Q1022
00:30
V
12 °C 10 km+ - 100°   100° 3 kt METAR LFLW 162230Z AUTO 10003KT CAVOK 12/10 Q1022
00:00
V
13 °C 10 km+ - 120°   120° 3 kt METAR LFLW 162200Z AUTO 12003KT CAVOK 13/11 Q1022

16 maggio 2022

Tempo Codice Tempo metereologico Temp. Vista Nuvole Vento METAR/SPECI
23:30
V
14 °C 10 km+ - 100°   100° 3 kt METAR LFLW 162130Z AUTO 10003KT CAVOK 14/11 Q1022
23:00
V
14 °C 10 km+ - 130°   130° 2 kt METAR LFLW 162100Z AUTO 13002KT CAVOK 14/12 Q1022
22:30
V
16 °C 10 km+ - 130°   130° 3 kt METAR LFLW 162030Z AUTO 13003KT CAVOK 16/12 Q1021
22:00
V
17 °C 10 km+ - 100°   100° 2 kt METAR LFLW 162000Z AUTO 10002KT CAVOK 17/11 Q1021
21:30
V
19 °C 10 km+ - Var   000° 0 kt METAR LFLW 161930Z AUTO 00000KT CAVOK 19/12 Q1021
21:00
V
21 °C 10 km+ - 330°   330° 2 kt METAR LFLW 161900Z AUTO 33002KT CAVOK 21/11 Q1021
20:30
V
22 °C 10 km+ - Var   Var 3 kt METAR LFLW 161830Z AUTO VRB03KT CAVOK 22/12 Q1021 NOSIG
20:00
V
23 °C 10 km+ - 270°   270° 4 kt METAR LFLW 161800Z AUTO 27004KT 230V300 CAVOK 23/11 Q1021 NOSIG
19:30
V
23 °C 10 km+ - 270°   270° 5 kt METAR LFLW 161730Z AUTO 27005KT 230V310 CAVOK 23/11 Q1021 NOSIG
19:00
V
24 °C 10 km+ - 250°   250° 4 kt METAR LFLW 161700Z AUTO 25004KT CAVOK 24/12 Q1021 NOSIG
18:30
V
24 °C 10 km+ - 230°   230° 4 kt METAR LFLW 161630Z AUTO 23004KT 160V290 CAVOK 24/12 Q1020 NOSIG
18:00
V
24 °C 10 km+ - 230°   230° 4 kt METAR LFLW 161600Z AUTO 23004KT 180V260 CAVOK 24/10 Q1021 NOSIG
17:30
V
25 °C 10 km+ - 300°   300° 4 kt METAR LFLW 161530Z AUTO 30004KT 240V010 CAVOK 25/11 Q1021 NOSIG
17:00
V
25 °C 10 km+ - 250°   250° 6 kt METAR LFLW 161500Z AUTO 25006KT 210V310 CAVOK 25/11 Q1021 NOSIG
16:30
V
25 °C 10 km+ - 260°   260° 5 kt METAR LFLW 161430Z AUTO 26005KT 210V310 CAVOK 25/10 Q1021 NOSIG
16:00
V
25 °C 10 km+ - 230°   230° 6 kt METAR LFLW 161400Z AUTO 23006KT 180V270 CAVOK 25/11 Q1021 NOSIG
15:30
V
25 °C 10 km+ - Var   Var 4 kt METAR LFLW 161330Z AUTO VRB04KT CAVOK 25/09 Q1021 NOSIG
15:00
V
25 °C 10 km+ - 260°   260° 5 kt METAR LFLW 161300Z AUTO 26005KT 190V320 CAVOK 25/10 Q1021 NOSIG
14:30
V
25 °C 10 km+ - 240°   240° 5 kt METAR LFLW 161230Z AUTO 24005KT 180V290 9999 SCT056 25/11 Q1021 NOSIG
14:00
V
24 °C 10 km+ - Var   Var 4 kt METAR LFLW 161200Z AUTO VRB04KT CAVOK 24/10 Q1021 NOSIG
13:30
V
24 °C 10 km+ - Var   Var 4 kt METAR LFLW 161130Z AUTO VRB04KT CAVOK 24/10 Q1021 NOSIG
13:00
V
23 °C 10 km+ - Var   Var 3 kt METAR LFLW 161100Z AUTO VRB03KT CAVOK 23/10 Q1021 NOSIG
12:30
V
23 °C 10 km+ - Var   Var 2 kt METAR LFLW 161030Z AUTO VRB02KT CAVOK 23/10 Q1021 NOSIG
12:00
V
23 °C 10 km+ - Var   Var 2 kt METAR LFLW 161000Z AUTO VRB02KT CAVOK 23/10 Q1021 NOSIG
11:30
V
22 °C 10 km+ - Var   Var 3 kt METAR LFLW 160930Z AUTO VRB03KT CAVOK 22/10 Q1021 NOSIG
11:00
V
21 °C 10 km+ - Var   Var 3 kt METAR LFLW 160900Z AUTO VRB03KT CAVOK 21/10 Q1021 NOSIG
10:30
V
20 °C 10 km+ - Var   Var 2 kt METAR LFLW 160830Z AUTO VRB02KT CAVOK 20/10 Q1021 NOSIG
10:00
V
18 °C 10 km+ - 110°   110° 4 kt METAR LFLW 160800Z AUTO 11004KT 070V150 CAVOK 18/07 Q1021 NOSIG
09:30
V
18 °C 10 km+ - 110°   110° 5 kt METAR LFLW 160730Z AUTO 11005KT 080V150 CAVOK 18/09 Q1021 NOSIG
09:00
V
16 °C 10 km+ - 110°   110° 3 kt METAR LFLW 160700Z AUTO 11003KT 080V160 CAVOK 16/09 Q1020 NOSIG
08:30
V
14 °C 10 km+ - 090°   090° 5 kt METAR LFLW 160630Z AUTO 09005KT CAVOK 14/10 Q1020 NOSIG
08:00
V
12 °C 10 km+ - 110°   110° 3 kt METAR LFLW 160600Z AUTO 11003KT 080V150 CAVOK 12/10 Q1020 NOSIG
07:30
V
11 °C 10 km+ - 130°   130° 4 kt METAR LFLW 160530Z AUTO 13004KT CAVOK 11/10 Q1020 NOSIG
07:00
V
11 °C 10 km+ - Var   Var 1 kt METAR LFLW 160500Z AUTO VRB01KT CAVOK 11/10 Q1019
06:30
V
11 °C 10 km+ - 130°   130° 5 kt METAR LFLW 160430Z AUTO 13005KT 110V170 CAVOK 11/10 Q1019
06:00
V
11 °C 10 km+ 11.000 ft 040°   040° 7 kt METAR LFLW 160400Z AUTO 04007KT 300V090 9999 -RA FEW054/// SCT090/// BKN110/// ///CB 11/11 Q1019
05:30
V
11 °C 10 km+ - 340°   340° 3 kt METAR LFLW 160330Z AUTO 34003KT 290V010 9999 ///TCU 11/10 Q1020
05:00
V
11 °C 10 km+ - 110°   110° 5 kt METAR LFLW 160300Z AUTO 11005KT CAVOK 11/10 Q1019
04:30
V
11 °C 10 km+ - 110°   110° 3 kt METAR LFLW 160230Z AUTO 11003KT CAVOK 11/10 Q1019
04:00
V
11 °C 10 km+ - 140°   140° 1 kt METAR LFLW 160200Z AUTO 14001KT CAVOK 11/10 Q1019
03:30
V
12 °C 10 km+ - Var   Var 2 kt METAR LFLW 160130Z AUTO VRB02KT CAVOK 12/10 Q1019
03:00
V
12 °C 10 km+ - 110°   110° 4 kt METAR LFLW 160100Z AUTO 11004KT 070V150 CAVOK 12/10 Q1019
02:30
V
12 °C 10 km+ - 110°   110° 8 kt METAR LFLW 160030Z AUTO 11008KT CAVOK 12/11 Q1018
02:00
V
13 °C 10 km+ - 110°   110° 8 kt METAR LFLW 160000Z AUTO 11008KT CAVOK 13/11 Q1018
01:30
V
14 °C 10 km+ 10.000 ft 070°   070° 8 kt METAR LFLW 152330Z AUTO 07008KT 030V130 9999 FEW026/// BKN100/// OVC130/// ///CB 14/11 Q1018
01:00
V
14 °C 10 km+ 7.000 ft 340°   340° 6 kt METAR LFLW 152300Z AUTO 34006KT 230V030 9999 -TSRA FEW031/// SCT060/// BKN070/// ///CB 14/12 Q1019
00:30
V
15 °C 10 km+ - 280°   280° 4 kt METAR LFLW 152230Z AUTO 28004KT 250V310 9999 VCTS ///CB 15/10 Q1020
00:00
V
17 °C 10 km+ - 270°   270° 4 kt METAR LFLW 152200Z AUTO 27004KT 240V300 9999 -RA ///CB 17/09 Q1019

15 maggio 2022

Tempo Codice Tempo metereologico Temp. Vista Nuvole Vento METAR/SPECI
23:30
V
17 °C 10 km+ 10.000 ft Var   Var 8 23 kt METAR LFLW 152130Z AUTO VRB08G23KT 9999 FEW056/// OVC100/// ///CB 17/08 Q1019
23:00
V
18 °C 10 km+ 10.000 ft 120°   120° 4 kt METAR LFLW 152100Z AUTO 12004KT 060V170 9999 TSRA FEW056/// BKN100/// OVC120/// ///CB 18/09 Q1018
22:30
V
18 °C 10 km+ - 100°   100° 6 kt METAR LFLW 152030Z AUTO 10006KT 9999 ///CB 18/08 Q1017
22:00
V
18 °C 10 km+ - 080°   080° 6 kt METAR LFLW 152000Z AUTO 08006KT CAVOK 18/08 Q1016
21:30
V
19 °C 10 km+ - 100°   100° 7 kt METAR LFLW 151930Z AUTO 10007KT 080V150 CAVOK 19/08 Q1016
21:00
V
20 °C 10 km+ - 140°   140° 7 kt METAR LFLW 151900Z AUTO 14007KT 110V170 CAVOK 20/09 Q1016
20:30
V
20 °C 10 km+ - 150°   150° 5 kt METAR LFLW 151830Z AUTO 15005KT 110V190 CAVOK 20/10 Q1016
20:00
V
22 °C 10 km+ - 150°   150° 7 kt METAR LFLW 151800Z AUTO 15007KT 110V190 CAVOK 22/10 Q1015
19:30
V
23 °C 10 km+ - 150°   150° 8 kt METAR LFLW 151730Z AUTO 15008KT 110V190 CAVOK 23/11 Q1015
19:00
V
23 °C 10 km+ - 140°   140° 7 kt METAR LFLW 151700Z AUTO 14007KT 100V170 CAVOK 23/12 Q1015 TEMPO 20025G45KT 2000 TSRA BKN012 BKN060CB
18:30
V
24 °C 10 km+ - 130°   130° 8 kt METAR LFLW 151630Z AUTO 13008KT 100V170 CAVOK 24/11 Q1015 TEMPO 20025G45KT 2000 TSRA BKN012 BKN060CB
18:00
V
24 °C 10 km+ - 140°   140° 9 kt METAR LFLW 151600Z AUTO 14009KT 110V170 CAVOK 24/11 Q1016 TEMPO 20025G45KT 2000 TSRA BKN012 BKN060CB
17:30
V
25 °C 10 km+ - 140°   140° 8 kt METAR LFLW 151530Z AUTO 14008KT 110V170 CAVOK 25/12 Q1016 TEMPO 20025G45KT 2000 TSRA BKN012 BKN060CB
17:00
V
24 °C 10 km+ - 120°   120° 8 kt METAR LFLW 151500Z AUTO 12008KT 090V160 CAVOK 24/13 Q1016 TEMPO 20025G45KT 2000 TSRA BKN012 BKN060CB
16:30
V
24 °C 10 km+ - 120°   120° 8 kt METAR LFLW 151430Z AUTO 12008KT 070V190 CAVOK 24/13 Q1016 TEMPO 20025G45KT 2000 TSRA BKN012 BKN060CB
16:00
V
24 °C 10 km+ - 140°   140° 8 kt METAR LFLW 151400Z AUTO 14008KT 100V180 CAVOK 24/13 Q1016 TEMPO 20025G45KT 2000 TSRA BKN012 BKN060CB
Dati più vecchi

Scarica la nostra applicazione

Facile accesso a tutte le previsioni dell'aviazione sul tuo cellulare e tablet.
Con molte caratteristiche non disponibili sul sito web, come il supporto offline e una lista personale di aeroporti.